Pt. Reyes RCA field Weather observations

Data are for 10 minute period ending at time listed.
 Day   Time   Solar   Ave.   Ave.  Ave.  Vector    Max.   Stn.   Total 
  of    of     Rad.   Air    Rel.  Wind   Wind     Wind   Baro. Precip.
Year   Day            Temp.  Hum.  Speed  Dir.     Gust   Pres.        
2016   (PST)   W/m2    F      %     mph   deg.      mph    mb.    in.  
-----------------------------------------------------------------------
 210   16:30  272.0    54   91.4     6    274.5     9.4   1008.8  0.00  
 210   16:40  281.0    54   91.3     6    289.6    10.4   1008.5  0.00  
 210   16:50  212.0    54   92.4     7    277.1     9.9   1008.5  0.00  
 210   17:00  178.0    53   93.7     7    277.7     9.8   1008.5  0.00  
 210   17:10  162.0    53   94.0     6    281.1     9.8   1008.5  0.00  
 210   17:20  135.0    53   94.6     6    267.2     8.2   1008.1  0.00  
 210   17:30  123.0    53   94.1     6    279.7     8.5   1008.1  0.00  
 210   17:40   94.0    53   94.8     6    270.4     9.4   1008.1  0.00  
 210   17:50   83.0    53   95.4     6    291.5     8.1   1008.1  0.00  
 210   18:00   64.0    53   96.0     5    289.0     8.1   1008.1  0.00  
 210   18:10   49.0    53   96.1     6    282.6     8.8   1008.1  0.00  
 210   18:20   42.0    52   96.5     5    269.7     7.2   1008.1  0.00  
 210   18:30   36.0    52   96.8     5    257.5     7.6   1008.1  0.00  
 210   18:40   27.0    52   97.1     5    277.1     7.2   1008.1  0.00  
 210   18:50   19.0    52   97.4     5    269.0     7.2   1007.8  0.00  
 210   19:00   13.0    52   97.8     4    271.9     6.6   1007.8  0.00  
 210   19:10    7.0    52   97.9     3    273.8     5.6   1007.8  0.00  
 210   19:20    3.0    52   98.1     4    268.2     4.9   1007.8  0.00  
 210   19:30    3.0    52   98.3     3    260.9     5.8   1008.1  0.00  
 210   19:40    2.0    52   98.4     4    276.1     5.8   1008.1  0.00  
 210   19:50    1.0    52   98.4     4    284.9     5.9   1008.1  0.00  
 210   20:00    0.0    51   98.5     4    276.2     5.9   1008.1  0.00  
 210   20:10    0.0    51   98.6     3    266.3     5.8   1008.1  0.00  
 210   20:20    0.0    51   98.7     3    297.7     4.7   1008.1  0.00  
 210   20:30    0.0    51   98.7     3    261.6     5.0   1008.5  0.00  
 210   20:40    0.0    51   98.8     4    270.7     5.3   1008.5  0.00  
 210   20:50    0.0    51   98.8     3    243.9     5.6   1008.5  0.00  
 210   21:00    0.0    51   98.9     4    256.5     5.0   1008.5  0.00  
 210   21:10    0.0    51   98.9     4    238.4     5.7   1008.8  0.00  
 210   21:20    0.0    51   98.9     4    242.1     6.6   1008.8  0.00  
 210   21:30    0.0    51   98.9     4    237.0     5.6   1008.8  0.00  
 210   21:40    0.0    51   99.0     4    215.2     5.9   1008.8  0.00  
 210   21:50    0.0    51   99.0     4    224.5     5.8   1008.8  0.00  
 210   22:00    0.0    51   99.0     3    238.1     4.7   1008.8  0.00  
 210   22:10    0.0    51   99.0     4    220.1     6.9   1008.8  0.00  
 210   22:20    0.0    51   99.0     2    196.6     3.6   1008.8  0.00  
 210   22:30    0.0    51   99.1     2    216.9     3.8   1008.5  0.00  
 210   22:40    0.0    51   99.1     4    196.8     6.0   1008.5  0.00  
 210   22:50    0.0    51   99.1     4    196.8     6.1   1008.5  0.00  
 210   23:00    0.0    51   99.1     3    175.4     5.0   1008.5  0.00  
 210   23:10    0.0    51   99.1     4    193.1     5.5   1008.5  0.00  
 210   23:20    0.0    51   99.1     4    212.8     6.5   1008.5  0.00  
 210   23:30    0.0    51   99.1     4    206.4     5.9   1008.5  0.00  
 210   23:40    0.0    51   99.1     2    174.0     3.0   1008.5  0.00  
 210   23:50    0.0    51   99.1     1    172.8     2.0   1008.1  0.00  
 211    0:00    0.0    51   99.2     3    229.1     5.6   1008.1  0.00  
 211    0:10    0.0    51   99.2     3    226.1     5.8   1008.1  0.00  
 211    0:20    0.0    51   99.2     2    228.8     3.9   1007.8  0.00  
 211    0:30    0.0    51   99.2     3    262.6     4.8   1007.8  0.00  
 211    0:40    0.0    50   99.2     1    212.1     3.9   1007.8  0.00  
 211    0:50    0.0    51   99.2     2    215.0     4.5   1007.8  0.00  
 211    1:00    0.0    50   99.2     2    244.1     4.4   1007.8  0.00  
 211    1:10    0.0    50   99.2     5    244.8     6.6   1007.8  0.00  
 211    1:20    0.0    50   99.2     3    225.4     5.3   1007.8  0.00  
 211    1:30    0.0    50   99.2     4    246.2     5.3   1007.8  0.00  
 211    1:40    0.0    50   99.2     4    277.0     5.4   1007.5  0.00  
 211    1:50    0.0    50   99.2     3    278.5     3.9   1007.5  0.00  
 211    2:00    0.0    50   99.3     3    264.1     4.7   1007.5  0.00  
 211    2:10    0.0    50   99.3     2    192.9     3.1   1007.5  0.00  
 211    2:20    0.0    50   99.3     2    156.9     3.1   1007.5  0.00  
 211    2:30    0.0    50   99.3     1    154.0     2.8   1007.5  0.00  
 211    2:40    0.0    50   99.3     1    215.2     2.4   1007.1  0.00  
 211    2:50    0.0    50   99.3     3    235.9     4.5   1007.1  0.00  
 211    3:00    0.0    50   99.3     3    241.9     5.0   1007.5  0.00  
 211    3:10    0.0    50   99.3     2    238.3     4.2   1007.5  0.00  
 211    3:20    0.0    50   99.3     3    217.8     4.1   1007.5  0.00  
 211    3:30    0.0    50   99.3     3    255.7     4.3   1007.5  0.00  
 211    3:40    0.0    50   99.3     3    251.4     4.3   1007.1  0.00  
 211    3:50    0.0    50   99.3     1    220.0     3.2   1007.1  0.00  
 211    4:00    0.0    50   99.3     3    231.9     4.2   1007.1  0.00  
 211    4:10    0.0    50   99.3     3    251.5     4.3   1007.5  0.00  
 211    4:20    0.0    50   99.4     2    188.2     2.6   1007.5  0.00  
 211    4:30    0.0    50   99.4     2    183.3     2.9   1007.5  0.00  
 211    4:40    0.0    50   99.4     4    206.3     5.0   1007.5  0.00  
 211    4:50    0.0    50   99.4     2    186.4     4.5   1007.5  0.00  
 211    5:00    0.0    50   99.4     4    182.1     5.1   1007.5  0.00  
 211    5:10    0.0    50   99.4     3    180.7     4.9   1007.5  0.00  
 211    5:20    2.0    50   99.4     3    207.1     4.1   1007.8  0.00  
 211    5:30    5.0    49   99.4     1    183.8     3.1   1007.8  0.00  
 211    5:40   11.0    50   99.4     0    121.5     1.2   1007.8  0.00  
 211    5:50   16.0    50   99.4     2    159.5     3.4   1007.8  0.00  
 211    6:00   24.0    50   99.4     3    176.4     4.9   1007.8  0.00  
 211    6:10   32.0    50   99.4     2    179.8     3.9   1008.1  0.00  
 211    6:20   28.0    50   99.4     4    230.9     5.7   1008.1  0.00  
 211    6:30   37.0    50   99.4     3    222.9     4.8   1008.1  0.00  
 211    6:40   44.0    50   99.4     3    228.7     5.2   1008.1  0.00  
 211    6:50   57.0    50   99.4     4    198.8     5.7   1008.1  0.00  
 211    7:00   74.0    50   99.4     4    162.6     6.4   1008.1  0.00  
 211    7:10  101.0    51   99.4     4    182.1     5.4   1008.1  0.00  
 211    7:20  110.0    51   99.4     4    189.0     7.2   1008.1  0.00  
 211    7:30  119.0    51   99.4     5    170.9     7.0   1008.1  0.00  
 211    7:40  152.0    51   99.4     5    170.6     6.5   1008.1  0.00  
 211    7:50  159.0    52   99.4     5    168.8     7.3   1008.5  0.00  
 211    8:00  161.0    52   99.4     4    191.6     7.2   1008.5  0.00  
 211    8:10  229.0    52   99.4     5    154.0     8.5   1008.5  0.00  
 211    8:20  252.0    52   99.4     4    164.7     7.1   1008.5  0.00  
 211    8:30  304.0    53   99.3     4    190.1     5.9   1008.5  0.00  
 211    8:40  314.0    54   99.2     4    186.0     6.4   1008.5  0.00  
 211    8:50  329.0    54   98.7     3    189.3     6.0   1008.5  0.00  
 211    9:00  356.0    54   97.1     4    211.0     6.6   1008.5  0.00  
 211    9:10  405.0    55   94.7     6    236.8     9.0   1008.5  0.00  
 211    9:20  457.0    55   92.6     5    245.0     8.1   1008.5  0.00  
 211    9:30  521.0    56   90.5     7    243.4     9.8   1008.5  0.00  
 211    9:40  516.0    55   90.5     7    269.9     9.3   1008.5  0.00  
 211    9:50  797.0    57   87.4     7    256.2     9.1   1008.5  0.00  
 211   10:00  633.0    58   84.3     7    263.1    10.4   1008.5  0.00  
 211   10:10  749.0    57   85.0     7    247.5    10.4   1008.5  0.00  
 211   10:20  765.0    58   84.5     8    251.5    11.8   1008.5  0.00  
 211   10:30  776.0    57   84.7     7    248.6    10.4   1008.5  0.00  
 211   10:40  791.0    58   83.8     8    259.8    11.0   1008.5  0.00  
 211   10:50  798.0    58   84.1     8    256.6    11.1   1008.5  0.00  
 211   11:00  817.0    58   84.1     8    263.6    11.2   1008.5  0.00  
 211   11:10  817.0    58   84.0     9    277.0    12.5   1008.1  0.00  
 211   11:20  817.0    57   85.5     8    262.3    12.2   1008.5  0.00  
 211   11:30  850.0    58   84.0     8    266.0    11.6   1008.5  0.00  
 211   11:40  852.0    58   83.0     7    252.8    10.6   1008.5  0.00  
 211   11:50  833.0    59   81.7     8    252.5    10.2   1008.1  0.00  
 211   12:00  865.0    59   81.7     7    251.8    10.6   1008.1  0.00  
 211   12:10  861.0    58   82.7     7    250.1    10.2   1008.1  0.00  
 211   12:20  872.0    58   83.2     8    259.1    11.6   1008.1  0.00  
 211   12:30  859.0    59   82.7     8    263.6    12.0   1008.1  0.00  
 211   12:40  863.0    58   84.5     8    268.5    11.6   1008.1  0.00  
 211   12:50  869.0    58   83.7     8    262.1    11.5   1008.1  0.00  
 211   13:00  859.0    60   81.7     8    264.5    11.5   1008.1  0.00  
 211   13:10  836.0    58   83.9     9    266.1    13.4   1008.1  0.00  
 211   13:20  776.0    58   84.4     9    261.8    12.0   1008.1  0.00  
 211   13:30  753.0    59   83.7     8    265.4    12.6   1007.8  0.00  
 211   13:40  791.0    58   85.1     8    269.3    11.0   1007.8  0.00  
 211   13:50  825.0    59   83.1     8    265.5    11.3   1007.5  0.00  
 211   14:00  850.0    58   83.7     8    259.4    11.4   1007.5  0.00  
 211   14:10  637.0    58   86.1     8    274.5    11.7   1007.5  0.00  
 211   14:20  699.0    58   85.0     8    266.5    11.6   1007.5  0.00  
 211   14:30  691.0    58   86.2     7    263.5    10.4   1007.1  0.00  
 211   14:40  628.0    57   87.3     8    275.7    11.0   1007.1  0.00  
 211   14:50  662.0    58   86.6     8    264.3    10.9   1007.1  0.00  
 211   15:00  551.0    58   86.8     7    268.1    10.0   1006.8  0.00  
 211   15:10  491.0    58   87.7     7    278.1    10.0   1006.8  0.00  
 211   15:20  423.0    57   88.6     7    270.2    10.4   1006.8  0.00  
 211   15:30  410.0    57   88.9     7    265.6    11.8   1006.8  0.00  
 211   15:40  405.0    57   88.2     8    269.9     9.9   1006.8  0.00  
 211   15:50  375.0    56   89.6     8    269.6    10.7   1006.8  0.00  
 211   16:00  374.0    57   90.1     7    264.9    10.2   1006.8  0.00  
 211   16:10  333.0    56   90.4     8    261.2    11.2   1006.8  0.00  
 211   16:20  280.0    56   91.3     7    254.4    10.4   1006.8  0.00  

Return to Pt. Reyes graphs page.


Western Regional Climate Center,wrcc@dri.edu